Airport View

Enter AWOS ICAO identifier for current METAR.

ex. KFNL

KGRF 100258Z AUTO 23006KT 10SM BKN039 21/16 A3002 RMK AO2 SLPNO T02060164 53001 TSNO $

10 Jul 2020 04:12

Other Area AWOS: KTCM - KTIW - KPLU - KOLM

TAF KGRF 092109Z 0921/1103 20009KT 9999 BKN030 BKN040 BKN200 QNH3000INS BECMG 1001/1002 VRB06KT 9999 BKN040 QNH3001INS BECMG 1008/1009 VRB06KT 9999 BKN020 QNH3010INS BECMG 1018/1019 VRB06KT 9999 SCT020 QNH3013INS TX22/0921Z TN12/1011Z